メインページ
METAR-TAF:

METAR-TAF

空港 :

Al Bahah, サウジアラビア

緯度: 20-18N, 経度: 041-38E, 海抜: 1652m

現時点の気象観測

当レポートは33分前の11:00(UTC)に作成
の風 13kt
気温 26°C
湿度 42%
気圧 1021 hPa
視程10km以上
高度3000ftの雲はほとんどない

METAR: OEBA 191100Z 18013KT 9999 FEW030 26/12 Q1021 NOSIG

時間: 14:33 (11:33 UTC)

予報

当レポートは33分前の11:00(UTC)に作成
予報は19日の 12時(UTC)から 20日の 18時(UTC)まで有効
南/南西の風 6kt、最大16ktの突風を伴う
視程: 7000m
高度3000ftの雲はほとんどない
19日の 12時(UTC)から 19日の 18時(UTC)まで一時的に
高度2500ftの雲はほとんどない, 積乱雲.
高度3000ftの雲は散在している
激しい雷雨, 雨
19日の 18時(UTC)から 19日の 20時(UTC)まで徐々に
西の風 8kt

TAF: OEBA 191100Z 1912/2018 20006G16KT 7000 FEW030 TEMPO 1912/1918 TSRA FEW025CB SCT030 BECMG 1918/1920 27008KT

4,000以上の空港の気象観測と天気予報(METAR報とTAF報)

利用可能な観測所は地図上に黄色い丸と赤い丸で示す。

丸の上にカーソルを重ねると観測所名を参照できる。

次にクリックすると気象観測と天気予報を参照できる。

マップの切り替え:黒色「×」印の緑ボタンをクリックして拡大、「-」印の緑ボタンをクリックして縮小、緑色の三角印をクリックして隣りの地図に切り替え


METAR-TAF: